createdAt,value
2018-12-13T00:00:40.569Z,9.87
2018-12-13T00:03:08.741Z,11.73
2018-12-13T00:05:36.912Z,10.20
2018-12-13T00:08:05.100Z,8.07
2018-12-13T00:10:33.260Z,8.40
2018-12-13T00:13:01.453Z,9.80
2018-12-13T00:15:31.973Z,11.07
2018-12-13T00:18:00.197Z,10.70
2018-12-13T00:20:28.421Z,12.97
2018-12-13T00:22:56.604Z,10.57
2018-12-13T00:25:24.757Z,11.93
2018-12-13T00:27:52.929Z,9.47
2018-12-13T00:30:21.120Z,11.00
2018-12-13T00:32:49.245Z,10.73
2018-12-13T00:35:17.451Z,11.40
2018-12-13T00:37:45.757Z,10.80
2018-12-13T00:40:13.905Z,9.23
2018-12-13T00:42:42.069Z,11.60
2018-12-13T00:45:10.280Z,9.87
2018-12-13T00:47:38.438Z,11.13
2018-12-13T00:50:06.596Z,10.20
2018-12-13T00:52:34.796Z,10.77
2018-12-13T00:55:02.943Z,11.20
2018-12-13T00:57:31.113Z,11.60
2018-12-13T00:59:59.313Z,12.17
2018-12-13T01:02:27.561Z,14.57
2018-12-13T01:04:55.736Z,11.33
2018-12-13T01:07:23.940Z,12.23
2018-12-13T01:09:52.084Z,11.10
2018-12-13T01:12:20.257Z,12.03
2018-12-13T01:14:48.448Z,10.50
2018-12-13T01:17:16.611Z,12.20
2018-12-13T01:19:44.778Z,10.73
2018-12-13T01:22:13.001Z,12.07
2018-12-13T01:24:41.228Z,12.07
2018-12-13T01:27:09.401Z,11.43
2018-12-13T01:29:37.651Z,10.17
2018-12-13T01:32:05.849Z,11.47
2018-12-13T01:34:34.028Z,12.40
2018-12-13T01:37:02.225Z,11.13
2018-12-13T01:39:30.481Z,12.60
2018-12-13T01:41:58.648Z,12.70
2018-12-13T01:44:27.513Z,14.13
2018-12-13T01:46:55.716Z,13.57
2018-12-13T01:49:23.889Z,10.83
2018-12-13T01:51:52.080Z,11.33
2018-12-13T01:54:20.232Z,13.83
2018-12-13T01:56:48.409Z,11.97
2018-12-13T01:59:16.600Z,13.53
2018-12-13T02:01:44.753Z,13.10
2018-12-13T02:04:12.940Z,12.83
2018-12-13T02:06:41.139Z,12.70
2018-12-13T02:09:09.378Z,12.57
2018-12-13T02:11:37.549Z,16.97
2018-12-13T02:14:05.752Z,13.40
2018-12-13T02:16:33.900Z,13.63
2018-12-13T02:19:02.075Z,12.33
2018-12-13T02:21:30.373Z,13.70
2018-12-13T02:23:58.531Z,14.77
2018-12-13T02:26:26.796Z,13.90
2018-12-13T02:28:55.036Z,14.17
2018-12-13T02:31:23.248Z,13.83
2018-12-13T02:33:51.836Z,13.77
2018-12-13T02:36:20.134Z,12.53
2018-12-13T02:38:48.385Z,14.40
2018-12-13T02:41:16.512Z,16.20
2018-12-13T02:43:44.748Z,13.97
2018-12-13T02:46:12.900Z,16.77
2018-12-13T02:48:41.076Z,16.43
2018-12-13T02:51:09.309Z,16.90
2018-12-13T02:53:37.528Z,17.37
2018-12-13T02:56:05.722Z,17.27
2018-12-13T02:58:34.004Z,17.83
2018-12-13T03:01:02.146Z,16.23
2018-12-13T03:03:30.325Z,15.43
2018-12-13T03:05:58.520Z,17.17
2018-12-13T03:08:26.675Z,18.77
2018-12-13T03:10:54.948Z,18.70
2018-12-13T03:13:23.161Z,17.30
2018-12-13T03:15:51.389Z,16.17
2018-12-13T03:18:19.565Z,17.87
2018-12-13T03:20:47.759Z,18.93
2018-12-13T03:23:15.909Z,18.70
2018-12-13T03:25:44.184Z,18.07
2018-12-13T03:28:12.385Z,16.70
2018-12-13T03:30:40.734Z,19.40
2018-12-13T03:33:08.918Z,18.03
2018-12-13T03:35:37.224Z,17.20
2018-12-13T03:38:05.465Z,19.60
2018-12-13T03:40:33.658Z,20.50
2018-12-13T03:43:01.855Z,16.67
2018-12-13T03:45:30.117Z,17.70
2018-12-13T03:47:58.364Z,17.77
2018-12-13T03:50:26.578Z,16.97
2018-12-13T03:52:54.808Z,16.60
2018-12-13T03:55:22.989Z,16.83
2018-12-13T03:57:52.060Z,17.83
2018-12-13T04:00:20.260Z,19.50
2018-12-13T04:02:48.472Z,18.80
2018-12-13T04:05:16.733Z,17.47
2018-12-13T04:07:44.970Z,17.17
2018-12-13T04:10:13.260Z,14.50
2018-12-13T04:12:41.472Z,19.17
2018-12-13T04:15:09.701Z,15.17
2018-12-13T04:17:37.905Z,16.87
2018-12-13T04:20:06.117Z,16.43
2018-12-13T04:22:34.326Z,19.30
2018-12-13T04:25:02.498Z,17.57
2018-12-13T04:27:30.697Z,17.00
2018-12-13T04:29:58.950Z,16.23
2018-12-13T04:32:27.121Z,15.47
2018-12-13T04:34:55.285Z,20.37
2018-12-13T04:37:23.469Z,18.67
2018-12-13T04:39:51.636Z,15.57
2018-12-13T04:42:19.850Z,18.67
2018-12-13T04:44:47.989Z,15.00
2018-12-13T04:47:16.330Z,15.33
2018-12-13T04:49:44.566Z,16.27
2018-12-13T04:52:12.745Z,14.13
2018-12-13T04:54:40.914Z,16.17
2018-12-13T04:57:09.113Z,19.50
2018-12-13T04:59:37.336Z,15.40
2018-12-13T05:02:05.516Z,16.03
2018-12-13T05:04:33.816Z,14.43
2018-12-13T05:07:01.969Z,17.03
2018-12-13T05:09:30.141Z,15.77
2018-12-13T05:11:59.104Z,18.30
2018-12-13T05:14:27.237Z,17.53
2018-12-13T05:16:55.468Z,15.67
2018-12-13T05:19:23.672Z,22.77
2018-12-13T05:21:51.832Z,20.83
2018-12-13T05:24:20.096Z,19.07
2018-12-13T05:26:48.304Z,20.80
2018-12-13T05:29:16.449Z,20.10
2018-12-13T05:31:44.630Z,20.23
2018-12-13T05:34:12.800Z,20.73
2018-12-13T05:36:40.974Z,21.67
2018-12-13T05:39:09.149Z,20.60
2018-12-13T05:41:37.360Z,25.17
2018-12-13T05:44:05.596Z,24.03
2018-12-13T05:46:33.764Z,22.60
2018-12-13T05:51:35.438Z,25.93
2018-12-13T05:54:03.607Z,23.40
2018-12-13T05:56:31.812Z,26.27
2018-12-13T05:59:00.057Z,29.07
2018-12-13T06:01:28.249Z,26.57
2018-12-13T06:03:56.455Z,24.90
2018-12-13T06:06:24.676Z,26.50
2018-12-13T06:08:52.849Z,24.70
2018-12-13T06:11:21.050Z,25.63
2018-12-13T06:13:49.236Z,25.27
2018-12-13T06:16:17.373Z,31.03
2018-12-13T06:18:45.581Z,27.50
2018-12-13T06:21:13.813Z,28.20
2018-12-13T06:23:41.996Z,26.00
2018-12-13T06:26:10.188Z,25.57
2018-12-13T06:28:38.346Z,30.17
2018-12-13T06:31:06.508Z,28.40
2018-12-13T06:33:34.710Z,24.60
2018-12-13T06:36:03.036Z,26.67
2018-12-13T06:38:31.232Z,27.87
2018-12-13T06:40:59.445Z,26.83
2018-12-13T06:43:27.681Z,26.97
2018-12-13T06:45:55.869Z,28.30
2018-12-13T06:48:24.056Z,26.93
2018-12-13T06:50:52.217Z,26.53
2018-12-13T06:53:20.532Z,27.77
2018-12-13T06:55:48.789Z,27.37
2018-12-13T06:58:16.929Z,27.73
2018-12-13T07:00:45.096Z,29.10
2018-12-13T07:03:13.388Z,26.77
2018-12-13T07:05:41.551Z,25.60
2018-12-13T07:08:09.729Z,26.40
2018-12-13T07:10:37.920Z,24.47
2018-12-13T07:13:06.068Z,26.70
2018-12-13T07:15:34.246Z,22.03
2018-12-13T07:18:02.443Z,28.60
2018-12-13T07:20:30.581Z,23.77
2018-12-13T07:22:58.790Z,26.20
2018-12-13T07:25:26.973Z,23.53
2018-12-13T07:27:55.105Z,28.47
2018-12-13T07:30:23.306Z,26.00
2018-12-13T07:32:51.480Z,30.17
2018-12-13T07:35:19.609Z,27.90
2018-12-13T07:37:47.797Z,27.03
2018-12-13T07:40:16.009Z,25.73
2018-12-13T07:42:44.140Z,26.10
2018-12-13T07:45:12.316Z,24.80
2018-12-13T07:47:40.529Z,22.07
2018-12-13T07:50:08.689Z,24.83
2018-12-13T07:52:36.840Z,25.53
2018-12-13T07:55:05.080Z,27.37
2018-12-13T07:57:33.292Z,25.00
2018-12-13T08:00:01.464Z,24.60
2018-12-13T08:02:29.669Z,24.37
2018-12-13T08:04:57.912Z,25.13
2018-12-13T08:07:26.080Z,26.10
2018-12-13T08:09:54.297Z,25.47
2018-12-13T08:12:22.451Z,26.70
2018-12-13T08:14:50.604Z,27.20
2018-12-13T08:17:18.948Z,26.33
2018-12-13T08:19:47.198Z,27.80
2018-12-13T08:22:15.369Z,27.60
2018-12-13T08:24:43.573Z,29.90
2018-12-13T08:27:11.817Z,25.53
2018-12-13T08:29:39.998Z,26.30
2018-12-13T08:32:08.298Z,27.30
2018-12-13T08:34:36.548Z,28.87
2018-12-13T08:37:04.812Z,30.37
2018-12-13T08:39:33.020Z,30.40
2018-12-13T08:42:01.264Z,25.10
2018-12-13T08:44:29.527Z,24.57
2018-12-13T08:46:57.747Z,28.43
2018-12-13T08:49:25.988Z,25.43
2018-12-13T08:51:54.165Z,24.97
2018-12-13T08:54:22.373Z,27.23
2018-12-13T08:56:50.613Z,46.57
2018-12-13T08:59:18.864Z,26.30
2018-12-13T09:01:47.100Z,28.10
2018-12-13T09:04:15.344Z,23.53
2018-12-13T09:06:43.508Z,27.23
2018-12-13T09:09:11.713Z,24.80
2018-12-13T09:11:39.965Z,27.90
2018-12-13T09:14:08.133Z,24.67
2018-12-13T09:16:36.456Z,26.23
2018-12-13T09:19:04.685Z,26.37
2018-12-13T09:21:32.875Z,27.43
2018-12-13T09:24:01.162Z,26.67
2018-12-13T09:26:29.408Z,29.57
2018-12-13T09:28:57.584Z,33.80
2018-12-13T09:31:25.777Z,29.17
2018-12-13T09:33:54.033Z,28.53
2018-12-13T09:36:22.196Z,28.90
2018-12-13T09:38:50.417Z,30.53
2018-12-13T09:41:18.648Z,29.97
2018-12-13T09:43:46.821Z,29.70
2018-12-13T09:46:15.138Z,33.33
2018-12-13T09:48:43.673Z,29.83
2018-12-13T09:51:11.873Z,28.20
2018-12-13T09:53:40.167Z,29.30
2018-12-13T09:56:08.408Z,30.03
2018-12-13T09:58:36.580Z,31.50
2018-12-13T10:01:04.793Z,30.67
2018-12-13T10:03:33.136Z,30.73
2018-12-13T10:06:01.309Z,28.37
2018-12-13T10:08:29.509Z,28.07
2018-12-13T10:10:57.759Z,30.67
2018-12-13T10:13:25.937Z,30.33
2018-12-13T10:15:54.132Z,31.90
2018-12-13T10:18:22.381Z,26.27
2018-12-13T10:20:50.556Z,25.93
2018-12-13T10:23:18.764Z,24.03
2018-12-13T10:25:47.011Z,31.37
2018-12-13T10:28:15.185Z,29.57
2018-12-13T10:30:43.481Z,27.40
2018-12-13T10:33:11.765Z,23.27
2018-12-13T10:35:39.926Z,23.93
2018-12-13T10:38:08.201Z,21.73
2018-12-13T10:40:36.452Z,20.53
2018-12-13T10:43:04.622Z,19.30
2018-12-13T10:45:32.930Z,23.73
2018-12-13T10:48:01.194Z,18.90
2018-12-13T10:50:29.453Z,21.37
2018-12-13T10:52:57.689Z,22.00
2018-12-13T10:55:26.015Z,19.10
2018-12-13T10:57:54.189Z,18.90
2018-12-13T11:00:27.804Z,19.33
2018-12-13T11:03:19.712Z,17.70
2018-12-13T11:05:47.939Z,22.53
2018-12-13T11:08:16.157Z,23.40
2018-12-13T11:10:44.336Z,21.57
2018-12-13T11:13:12.534Z,23.07
2018-12-13T11:15:40.787Z,19.63
2018-12-13T11:18:09.065Z,25.03
2018-12-13T11:20:37.253Z,21.23
2018-12-13T11:23:05.520Z,19.30
2018-12-13T11:25:33.891Z,20.70
2018-12-13T11:28:14.373Z,21.97
2018-12-13T11:30:42.629Z,21.47
2018-12-13T11:33:10.793Z,19.07
2018-12-13T11:35:38.977Z,21.10
2018-12-13T11:38:07.144Z,18.37
2018-12-13T11:40:35.324Z,20.47
2018-12-13T11:43:03.539Z,19.37
2018-12-13T11:45:31.901Z,19.20
2018-12-13T11:48:00.164Z,21.83
2018-12-13T11:50:28.457Z,21.10
2018-12-13T11:52:56.705Z,18.87
2018-12-13T11:55:33.877Z,21.10
2018-12-13T11:58:02.517Z,20.67
2018-12-13T12:00:30.736Z,21.20
2018-12-13T12:02:58.949Z,18.37
2018-12-13T12:05:27.227Z,20.60
2018-12-13T12:07:55.485Z,19.70
2018-12-13T12:10:23.782Z,21.73
2018-12-13T12:12:52.040Z,20.13
2018-12-13T12:15:20.292Z,21.60
2018-12-13T12:17:48.598Z,18.37
2018-12-13T12:20:16.850Z,20.87
2018-12-13T12:22:45.020Z,22.07
2018-12-13T12:25:13.240Z,20.50
2018-12-13T12:27:41.493Z,19.57
2018-12-13T12:30:09.752Z,21.73
2018-12-13T12:33:41.429Z,21.47
2018-12-13T12:36:09.593Z,17.97
2018-12-13T12:38:37.864Z,15.63
2018-12-13T12:41:06.084Z,18.80
2018-12-13T12:43:34.313Z,20.93
2018-12-13T12:46:02.589Z,18.30
2018-12-13T12:48:30.877Z,17.00
2018-12-13T12:50:59.124Z,18.23
2018-12-13T12:53:27.306Z,18.17
2018-12-13T12:55:55.617Z,17.93
2018-12-13T12:58:23.916Z,17.20
2018-12-13T13:00:52.166Z,23.20
2018-12-13T13:03:20.428Z,20.40
2018-12-13T13:05:48.884Z,21.63
2018-12-13T13:08:17.064Z,21.67
2018-12-13T13:10:45.263Z,28.00
2018-12-13T13:13:13.504Z,24.27
2018-12-13T13:15:41.764Z,21.83
2018-12-13T13:18:10.005Z,22.27
2018-12-13T13:20:38.245Z,25.20
2018-12-13T13:23:06.408Z,17.33
2018-12-13T13:25:34.918Z,19.57
2018-12-13T13:28:03.165Z,21.70
2018-12-13T13:30:31.380Z,18.83
2018-12-13T13:32:59.697Z,20.43
2018-12-13T13:35:27.889Z,19.53
2018-12-13T13:37:56.066Z,22.40
2018-12-13T13:40:24.300Z,27.87
2018-12-13T13:42:52.529Z,24.47
2018-12-13T13:45:21.201Z,19.27
2018-12-13T13:47:49.501Z,22.73
2018-12-13T13:50:17.761Z,22.50
2018-12-13T13:52:45.941Z,18.47
2018-12-13T13:55:14.132Z,18.53
2018-12-13T13:57:42.365Z,17.77
2018-12-13T14:00:10.544Z,19.03
2018-12-13T14:02:38.752Z,18.37
2018-12-13T14:05:07.001Z,19.27
2018-12-13T14:07:35.265Z,21.43
2018-12-13T14:10:03.580Z,19.17
2018-12-13T14:13:34.901Z,20.53
2018-12-13T14:16:03.100Z,17.93
2018-12-13T14:18:32.277Z,21.47
2018-12-13T14:21:00.474Z,20.27
2018-12-13T14:23:28.765Z,21.47
2018-12-13T14:25:57.092Z,22.57
2018-12-13T14:28:25.268Z,20.77
2018-12-13T14:30:53.478Z,21.93
2018-12-13T14:33:21.726Z,21.60
2018-12-13T14:35:49.889Z,23.67
2018-12-13T14:38:18.092Z,24.53
2018-12-13T14:40:46.232Z,22.40
2018-12-13T14:43:14.404Z,22.60
2018-12-13T14:45:42.668Z,22.93
2018-12-13T14:48:10.961Z,25.23
2018-12-13T14:50:39.241Z,26.37
2018-12-13T14:53:07.435Z,37.33
2018-12-13T14:55:35.684Z,25.27
2018-12-13T14:58:03.869Z,29.70
2018-12-13T15:00:32.125Z,30.27
2018-12-13T15:03:00.317Z,29.23
2018-12-13T15:05:28.493Z,26.97
2018-12-13T15:07:56.729Z,27.83
2018-12-13T15:10:24.953Z,26.10
2018-12-13T15:12:53.217Z,25.30
2018-12-13T15:15:21.508Z,23.70
2018-12-13T15:17:49.835Z,28.17
2018-12-13T15:20:18.153Z,28.13
2018-12-13T15:22:46.362Z,28.90
2018-12-13T15:25:14.593Z,30.80
2018-12-13T15:27:42.778Z,29.37
2018-12-13T15:30:11.013Z,24.23
2018-12-13T15:32:39.229Z,24.63
2018-12-13T15:35:07.380Z,25.90
2018-12-13T15:37:35.560Z,27.90
2018-12-13T15:40:03.740Z,27.33
2018-12-13T15:42:31.923Z,23.87
2018-12-13T15:45:00.118Z,26.03
2018-12-13T15:47:28.401Z,26.47
2018-12-13T15:49:56.637Z,30.50
2018-12-13T15:52:24.843Z,29.80
2018-12-13T15:54:53.090Z,25.90
2018-12-13T15:57:21.362Z,29.60
2018-12-13T15:59:49.557Z,32.43
2018-12-13T16:02:17.810Z,29.93
2018-12-13T16:04:46.089Z,29.73
2018-12-13T16:07:14.285Z,31.53
2018-12-13T16:09:42.549Z,26.37
2018-12-13T16:12:10.833Z,29.97
2018-12-13T16:14:39.162Z,33.30
2018-12-13T16:17:07.364Z,28.40
2018-12-13T16:19:35.544Z,27.70
2018-12-13T16:22:03.853Z,30.83
2018-12-13T16:24:32.076Z,32.03
2018-12-13T16:27:00.267Z,29.97
2018-12-13T16:29:28.462Z,33.17
2018-12-13T16:31:56.708Z,29.63
2018-12-13T16:34:24.896Z,31.83
2018-12-13T16:36:53.197Z,28.07
2018-12-13T16:39:21.469Z,30.20
2018-12-13T16:41:49.722Z,31.30
2018-12-13T16:44:18.260Z,29.43
2018-12-13T16:46:46.500Z,32.83
2018-12-13T16:49:14.752Z,27.87
2018-12-13T16:51:43.057Z,29.30
2018-12-13T16:54:11.329Z,32.40
2018-12-13T16:56:40.512Z,35.40
2018-12-13T16:59:08.809Z,32.50
2018-12-13T17:01:37.053Z,34.27
2018-12-13T17:04:05.315Z,34.97
2018-12-13T17:06:33.537Z,36.20
2018-12-13T17:09:01.858Z,30.53
2018-12-13T17:11:30.066Z,29.20
2018-12-13T17:13:58.352Z,33.17
2018-12-13T17:16:26.613Z,34.03
2018-12-13T17:18:54.821Z,37.27
2018-12-13T17:21:23.076Z,36.30
2018-12-13T17:23:51.326Z,35.17
2018-12-13T17:26:19.505Z,38.60
2018-12-13T17:28:47.700Z,35.30
2018-12-13T17:31:15.847Z,37.30
2018-12-13T17:33:44.021Z,31.70
2018-12-13T17:36:12.261Z,30.30
2018-12-13T17:38:40.428Z,36.10
2018-12-13T17:41:08.648Z,36.13
2018-12-13T17:43:36.857Z,32.80
2018-12-13T17:46:05.088Z,36.47
2018-12-13T17:48:33.355Z,34.20
2018-12-13T17:51:01.677Z,34.20
2018-12-13T17:53:29.922Z,40.90
2018-12-13T17:55:58.089Z,34.40
2018-12-13T17:58:26.316Z,39.40
2018-12-13T18:00:54.541Z,32.67
2018-12-13T18:03:22.717Z,36.90
2018-12-13T18:05:50.969Z,36.57
2018-12-13T18:08:19.215Z,36.70
2018-12-13T18:10:47.603Z,41.53
2018-12-13T18:13:15.883Z,35.23
2018-12-13T18:15:44.140Z,38.53
2018-12-13T18:18:12.381Z,34.23
2018-12-13T18:20:40.605Z,34.77
2018-12-13T18:23:08.836Z,35.30
2018-12-13T18:25:37.132Z,35.77
2018-12-13T18:28:05.423Z,32.77
2018-12-13T18:30:33.676Z,38.13
2018-12-13T18:33:01.940Z,36.93
2018-12-13T18:35:30.229Z,38.00
2018-12-13T18:37:58.413Z,37.90
2018-12-13T18:40:26.677Z,37.83
2018-12-13T18:42:54.966Z,37.63
2018-12-13T18:45:24.076Z,40.87
2018-12-13T18:47:52.440Z,39.77
2018-12-13T18:50:20.839Z,36.60
2018-12-13T18:52:49.174Z,46.73
2018-12-13T18:55:17.450Z,38.50
2018-12-13T18:57:45.785Z,38.00
2018-12-13T19:00:14.005Z,33.10
2018-12-13T19:02:42.665Z,40.67
2018-12-13T19:05:10.883Z,37.90
2018-12-13T19:07:39.395Z,36.73
2018-12-13T19:10:07.620Z,40.00
2018-12-13T19:12:35.893Z,36.03
2018-12-13T19:15:04.930Z,37.27
2018-12-13T19:17:33.188Z,35.40
2018-12-13T19:20:01.450Z,31.00
2018-12-13T19:22:29.715Z,38.37
2018-12-13T19:24:57.893Z,37.90
2018-12-13T19:27:26.185Z,31.87
2018-12-13T19:29:54.730Z,33.13
2018-12-13T19:32:23.034Z,33.10
2018-12-13T19:34:52.120Z,41.10
2018-12-13T19:37:20.368Z,36.77
2018-12-13T19:39:48.549Z,34.70
2018-12-13T19:43:45.992Z,35.53
2018-12-13T19:46:14.169Z,34.60
2018-12-13T19:48:42.414Z,35.90
2018-12-13T19:51:10.851Z,35.20
2018-12-13T19:53:39.209Z,35.17
2018-12-13T19:56:07.417Z,31.63
2018-12-13T19:58:35.689Z,33.60
2018-12-13T20:01:03.936Z,31.43
2018-12-13T20:03:32.100Z,32.33
2018-12-13T20:06:00.324Z,35.63
2018-12-13T20:08:28.585Z,37.03
2018-12-13T20:10:56.936Z,34.83
2018-12-13T20:13:25.140Z,39.93
2018-12-13T20:15:53.383Z,35.77
2018-12-13T20:18:21.586Z,37.53
2018-12-13T20:20:49.941Z,32.43
2018-12-13T20:23:18.128Z,34.77
2018-12-13T20:25:46.389Z,31.93
2018-12-13T20:28:14.701Z,37.63
2018-12-13T20:30:43.252Z,36.07
2018-12-13T20:33:11.421Z,37.83
2018-12-13T20:35:39.622Z,36.33
2018-12-13T20:38:07.868Z,36.93
2018-12-13T20:40:36.060Z,36.73
2018-12-13T20:43:04.356Z,35.37
2018-12-13T20:45:32.592Z,33.70
2018-12-13T20:48:00.764Z,34.80
2018-12-13T20:50:28.972Z,37.00
2018-12-13T20:52:57.217Z,35.43
2018-12-13T20:55:25.498Z,35.67
2018-12-13T20:57:53.701Z,44.60
2018-12-13T21:00:22.004Z,41.57
2018-12-13T21:02:50.213Z,33.77
2018-12-13T21:05:18.409Z,34.73
2018-12-13T21:07:47.011Z,35.93
2018-12-13T21:10:15.343Z,40.70
2018-12-13T21:12:43.666Z,36.00
2018-12-13T21:15:11.904Z,32.03
2018-12-13T21:17:40.076Z,34.90
2018-12-13T21:20:08.378Z,30.13
2018-12-13T21:22:36.620Z,35.83
2018-12-13T21:25:04.830Z,35.03
2018-12-13T21:27:33.092Z,36.40
2018-12-13T21:30:01.344Z,33.13
2018-12-13T21:32:29.524Z,34.27
2018-12-13T21:34:57.832Z,30.47
2018-12-13T21:37:25.969Z,35.33
2018-12-13T21:39:54.117Z,32.27
2018-12-13T21:42:22.354Z,31.33
2018-12-13T21:44:50.601Z,32.27
2018-12-13T21:47:18.769Z,32.47
2018-12-13T21:49:46.964Z,31.00
2018-12-13T21:52:15.213Z,32.03
2018-12-13T21:54:43.493Z,29.77
2018-12-13T21:57:12.098Z,28.37
2018-12-13T21:59:40.372Z,32.93
2018-12-13T22:02:08.633Z,32.10
2018-12-13T22:04:36.835Z,29.67
2018-12-13T22:07:05.125Z,33.27
2018-12-13T22:09:33.369Z,31.27
2018-12-13T22:12:01.532Z,31.50
2018-12-13T22:14:29.669Z,27.17
2018-12-13T22:16:57.837Z,28.93
2018-12-13T22:19:26.052Z,29.37
2018-12-13T22:21:54.204Z,30.27
2018-12-13T22:24:22.969Z,32.57
2018-12-13T22:26:51.186Z,30.90
2018-12-13T22:29:19.320Z,29.90
2018-12-13T22:31:47.676Z,31.77
2018-12-13T22:34:15.913Z,28.50
2018-12-13T22:36:44.049Z,29.53
2018-12-13T22:39:12.157Z,29.87
2018-12-13T22:41:40.318Z,32.20
2018-12-13T22:44:08.507Z,28.47
2018-12-13T22:46:36.645Z,25.67
2018-12-13T22:49:04.873Z,32.13
2018-12-13T22:53:02.388Z,28.00
2018-12-13T22:55:30.721Z,24.73
2018-12-13T22:57:58.940Z,27.60
2018-12-13T23:00:27.226Z,27.90
2018-12-13T23:02:55.416Z,26.33
2018-12-13T23:05:23.568Z,26.93
2018-12-13T23:07:51.827Z,36.90
2018-12-13T23:10:20.033Z,26.37
2018-12-13T23:12:48.280Z,29.93
2018-12-13T23:15:16.519Z,29.47
2018-12-13T23:17:45.873Z,28.73
2018-12-13T23:20:25.311Z,31.87
2018-12-13T23:22:53.641Z,29.83
2018-12-13T23:25:21.840Z,30.13
2018-12-13T23:27:50.013Z,28.83
2018-12-13T23:30:18.212Z,30.33
2018-12-13T23:32:46.738Z,30.57
2018-12-13T23:35:14.941Z,27.37
2018-12-13T23:37:43.149Z,26.33
2018-12-13T23:40:11.256Z,29.30
2018-12-13T23:42:39.460Z,30.17
2018-12-13T23:45:07.671Z,27.30
2018-12-13T23:47:35.817Z,26.67
2018-12-13T23:50:04.085Z,29.20
2018-12-13T23:52:32.303Z,28.63
2018-12-13T23:55:00.546Z,26.50
2018-12-13T23:57:28.705Z,26.07
2018-12-13T23:59:56.904Z,22.90
